sensor_id;sensor_type;location;lat;lon;timestamp;pressure;altitude;pressure_sealevel;temperature
41593;BMP180;28026;48.562;14.440;2022-10-16T00:01:50;93860.00;;;20.40
41593;BMP180;28026;48.562;14.440;2022-10-16T00:04:21;93859.00;;;20.40
41593;BMP180;28026;48.562;14.440;2022-10-16T00:06:52;93853.00;;;20.30
41593;BMP180;28026;48.562;14.440;2022-10-16T00:09:23;93863.00;;;20.40
41593;BMP180;28026;48.562;14.440;2022-10-16T00:11:54;93858.00;;;20.40
41593;BMP180;28026;48.562;14.440;2022-10-16T00:14:25;93858.00;;;20.40
41593;BMP180;28026;48.562;14.440;2022-10-16T00:16:56;93863.00;;;20.40
41593;BMP180;28026;48.562;14.440;2022-10-16T00:19:26;93868.00;;;20.30
41593;BMP180;28026;48.562;14.440;2022-10-16T00:21:57;93860.00;;;20.30
41593;BMP180;28026;48.562;14.440;2022-10-16T00:24:28;93855.00;;;20.20
41593;BMP180;28026;48.562;14.440;2022-10-16T00:26:59;93859.00;;;20.20
41593;BMP180;28026;48.562;14.440;2022-10-16T00:29:30;93850.00;;;20.20
41593;BMP180;28026;48.562;14.440;2022-10-16T00:32:01;93855.00;;;20.20
41593;BMP180;28026;48.562;14.440;2022-10-16T00:34:32;93871.00;;;20.20
41593;BMP180;28026;48.562;14.440;2022-10-16T00:37:03;93875.00;;;20.20
41593;BMP180;28026;48.562;14.440;2022-10-16T00:39:35;93880.00;;;20.20
41593;BMP180;28026;48.562;14.440;2022-10-16T00:42:06;93888.00;;;20.20
41593;BMP180;28026;48.562;14.440;2022-10-16T00:47:41;93886.00;;;20.10
41593;BMP180;28026;48.562;14.440;2022-10-16T00:50:33;93886.00;;;20.10
41593;BMP180;28026;48.562;14.440;2022-10-16T00:53:05;93891.00;;;20.10
41593;BMP180;28026;48.562;14.440;2022-10-16T00:55:36;93895.00;;;20.10
41593;BMP180;28026;48.562;14.440;2022-10-16T00:58:07;93891.00;;;20.10
41593;BMP180;28026;48.562;14.440;2022-10-16T01:00:38;93882.00;;;20.10
41593;BMP180;28026;48.562;14.440;2022-10-16T01:03:30;93885.00;;;20.20
41593;BMP180;28026;48.562;14.440;2022-10-16T01:09:20;93880.00;;;20.20
41593;BMP180;28026;48.562;14.440;2022-10-16T01:12:27;93887.00;;;20.10
41593;BMP180;28026;48.562;14.440;2022-10-16T01:15:42;93887.00;;;20.10
41593;BMP180;28026;48.562;14.440;2022-10-16T01:18:53;93891.00;;;20.10
41593;BMP180;28026;48.562;14.440;2022-10-16T01:21:39;93887.00;;;20.10
41593;BMP180;28026;48.562;14.440;2022-10-16T01:27:30;93888.00;;;20.10
41593;BMP180;28026;48.562;14.440;2022-10-16T01:33:02;93876.00;;;20.10
41593;BMP180;28026;48.562;14.440;2022-10-16T01:36:02;93884.00;;;20.10
41593;BMP180;28026;48.562;14.440;2022-10-16T01:38:43;93889.00;;;20.10
41593;BMP180;28026;48.562;14.440;2022-10-16T01:41:26;93890.00;;;20.10
41593;BMP180;28026;48.562;14.440;2022-10-16T01:44:08;93902.00;;;20.10
41593;BMP180;28026;48.562;14.440;2022-10-16T01:46:47;93895.00;;;20.10
41593;BMP180;28026;48.562;14.440;2022-10-16T01:49:23;93896.00;;;20.10
41593;BMP180;28026;48.562;14.440;2022-10-16T01:52:02;93891.00;;;20.10
41593;BMP180;28026;48.562;14.440;2022-10-16T01:54:40;93904.00;;;20.10
41593;BMP180;28026;48.562;14.440;2022-10-16T01:57:15;93910.00;;;20.10
41593;BMP180;28026;48.562;14.440;2022-10-16T01:59:54;93904.00;;;20.10
41593;BMP180;28026;48.562;14.440;2022-10-16T02:02:31;93913.00;;;20.10
41593;BMP180;28026;48.562;14.440;2022-10-16T02:08:04;93919.00;;;20.00
41593;BMP180;28026;48.562;14.440;2022-10-16T02:10:36;93914.00;;;20.00
41593;BMP180;28026;48.562;14.440;2022-10-16T02:13:22;93914.00;;;20.00
41593;BMP180;28026;48.562;14.440;2022-10-16T02:15:58;93912.00;;;19.90
41593;BMP180;28026;48.562;14.440;2022-10-16T02:18:30;93913.00;;;20.00
41593;BMP180;28026;48.562;14.440;2022-10-16T02:21:25;93923.00;;;19.90
41593;BMP180;28026;48.562;14.440;2022-10-16T02:29:42;93915.00;;;19.90
41593;BMP180;28026;48.562;14.440;2022-10-16T02:32:24;93919.00;;;20.00
41593;BMP180;28026;48.562;14.440;2022-10-16T02:35:04;93925.00;;;19.90
41593;BMP180;28026;48.562;14.440;2022-10-16T02:37:40;93920.00;;;19.90
41593;BMP180;28026;48.562;14.440;2022-10-16T02:40:12;93930.00;;;19.90
41593;BMP180;28026;48.562;14.440;2022-10-16T02:42:44;93927.00;;;19.90
41593;BMP180;28026;48.562;14.440;2022-10-16T02:45:15;93921.00;;;19.90
41593;BMP180;28026;48.562;14.440;2022-10-16T02:47:46;93928.00;;;19.90
41593;BMP180;28026;48.562;14.440;2022-10-16T02:50:18;93915.00;;;19.90
41593;BMP180;28026;48.562;14.440;2022-10-16T02:52:48;93930.00;;;20.00
41593;BMP180;28026;48.562;14.440;2022-10-16T02:55:19;93928.00;;;20.00
41593;BMP180;28026;48.562;14.440;2022-10-16T02:57:50;93928.00;;;20.00
41593;BMP180;28026;48.562;14.440;2022-10-16T03:00:21;93941.00;;;19.90
41593;BMP180;28026;48.562;14.440;2022-10-16T03:02:52;93934.00;;;19.90
41593;BMP180;28026;48.562;14.440;2022-10-16T03:05:23;93940.00;;;19.90
41593;BMP180;28026;48.562;14.440;2022-10-16T03:07:54;93941.00;;;19.90
41593;BMP180;28026;48.562;14.440;2022-10-16T03:10:26;93944.00;;;19.90
41593;BMP180;28026;48.562;14.440;2022-10-16T03:12:57;93943.00;;;19.90
41593;BMP180;28026;48.562;14.440;2022-10-16T03:15:28;93945.00;;;19.90
41593;BMP180;28026;48.562;14.440;2022-10-16T03:18:00;93942.00;;;19.90
41593;BMP180;28026;48.562;14.440;2022-10-16T03:20:31;93947.00;;;19.90
41593;BMP180;28026;48.562;14.440;2022-10-16T03:23:02;93953.00;;;19.90
41593;BMP180;28026;48.562;14.440;2022-10-16T03:25:33;93952.00;;;19.80
41593;BMP180;28026;48.562;14.440;2022-10-16T03:28:04;93954.00;;;19.80
41593;BMP180;28026;48.562;14.440;2022-10-16T03:30:35;93952.00;;;19.80
41593;BMP180;28026;48.562;14.440;2022-10-16T03:33:06;93954.00;;;19.80
41593;BMP180;28026;48.562;14.440;2022-10-16T03:35:37;93953.00;;;19.70
41593;BMP180;28026;48.562;14.440;2022-10-16T03:38:08;93944.00;;;19.70
41593;BMP180;28026;48.562;14.440;2022-10-16T03:40:39;93949.00;;;19.70
41593;BMP180;28026;48.562;14.440;2022-10-16T03:43:10;93942.00;;;19.70
41593;BMP180;28026;48.562;14.440;2022-10-16T03:45:40;93940.00;;;19.70
41593;BMP180;28026;48.562;14.440;2022-10-16T03:48:11;93945.00;;;19.70
41593;BMP180;28026;48.562;14.440;2022-10-16T03:50:42;93942.00;;;19.70
41593;BMP180;28026;48.562;14.440;2022-10-16T03:53:14;93950.00;;;19.70
41593;BMP180;28026;48.562;14.440;2022-10-16T03:55:45;93940.00;;;19.70
41593;BMP180;28026;48.562;14.440;2022-10-16T03:58:16;93945.00;;;19.70
41593;BMP180;28026;48.562;14.440;2022-10-16T04:00:48;93950.00;;;19.70
41593;BMP180;28026;48.562;14.440;2022-10-16T04:03:19;93953.00;;;19.70
41593;BMP180;28026;48.562;14.440;2022-10-16T04:05:50;93960.00;;;19.70
41593;BMP180;28026;48.562;14.440;2022-10-16T04:08:21;93958.00;;;19.70
41593;BMP180;28026;48.562;14.440;2022-10-16T04:10:52;93970.00;;;19.70
41593;BMP180;28026;48.562;14.440;2022-10-16T04:13:23;93971.00;;;19.60
41593;BMP180;28026;48.562;14.440;2022-10-16T04:15:54;93972.00;;;19.60
41593;BMP180;28026;48.562;14.440;2022-10-16T04:18:25;93977.00;;;19.60
41593;BMP180;28026;48.562;14.440;2022-10-16T04:21:04;93976.00;;;19.60
41593;BMP180;28026;48.562;14.440;2022-10-16T04:23:36;93984.00;;;19.60
41593;BMP180;28026;48.562;14.440;2022-10-16T04:26:07;93977.00;;;19.60
41593;BMP180;28026;48.562;14.440;2022-10-16T04:28:38;93977.00;;;19.60
41593;BMP180;28026;48.562;14.440;2022-10-16T04:31:09;93971.00;;;19.50
41593;BMP180;28026;48.562;14.440;2022-10-16T04:33:43;93977.00;;;19.60
41593;BMP180;28026;48.562;14.440;2022-10-16T04:36:14;93980.00;;;19.60
41593;BMP180;28026;48.562;14.440;2022-10-16T04:38:45;93977.00;;;19.60
41593;BMP180;28026;48.562;14.440;2022-10-16T04:41:15;93988.00;;;19.60
41593;BMP180;28026;48.562;14.440;2022-10-16T04:43:46;93986.00;;;19.60
41593;BMP180;28026;48.562;14.440;2022-10-16T04:46:18;93981.00;;;19.60
41593;BMP180;28026;48.562;14.440;2022-10-16T04:48:48;93978.00;;;19.60
41593;BMP180;28026;48.562;14.440;2022-10-16T04:51:19;93983.00;;;19.60
41593;BMP180;28026;48.562;14.440;2022-10-16T04:53:50;93981.00;;;19.60
41593;BMP180;28026;48.562;14.440;2022-10-16T04:56:21;93988.00;;;19.60
41593;BMP180;28026;48.562;14.440;2022-10-16T04:58:53;93999.00;;;19.60
41593;BMP180;28026;48.562;14.440;2022-10-16T05:01:24;93989.00;;;19.60
41593;BMP180;28026;48.562;14.440;2022-10-16T05:03:55;94007.00;;;19.60
41593;BMP180;28026;48.562;14.440;2022-10-16T05:06:26;93996.00;;;19.60
41593;BMP180;28026;48.562;14.440;2022-10-16T05:08:56;93997.00;;;19.60
41593;BMP180;28026;48.562;14.440;2022-10-16T05:11:27;94001.00;;;19.60
41593;BMP180;28026;48.562;14.440;2022-10-16T05:13:59;93997.00;;;19.60
41593;BMP180;28026;48.562;14.440;2022-10-16T05:16:30;93995.00;;;19.60
41593;BMP180;28026;48.562;14.440;2022-10-16T05:19:01;93990.00;;;19.60
41593;BMP180;28026;48.562;14.440;2022-10-16T05:21:32;93990.00;;;19.60
41593;BMP180;28026;48.562;14.440;2022-10-16T05:24:03;93999.00;;;19.60
41593;BMP180;28026;48.562;14.440;2022-10-16T05:26:34;94006.00;;;19.60
41593;BMP180;28026;48.562;14.440;2022-10-16T05:29:05;94016.00;;;19.60
41593;BMP180;28026;48.562;14.440;2022-10-16T05:31:36;94015.00;;;19.60
41593;BMP180;28026;48.562;14.440;2022-10-16T05:34:07;94019.00;;;19.60
41593;BMP180;28026;48.562;14.440;2022-10-16T05:36:38;94025.00;;;19.60
41593;BMP180;28026;48.562;14.440;2022-10-16T05:39:09;94022.00;;;19.60
41593;BMP180;28026;48.562;14.440;2022-10-16T05:41:39;94021.00;;;19.60
41593;BMP180;28026;48.562;14.440;2022-10-16T05:44:11;94023.00;;;19.60
41593;BMP180;28026;48.562;14.440;2022-10-16T05:46:42;94025.00;;;19.70
41593;BMP180;28026;48.562;14.440;2022-10-16T05:49:12;94034.00;;;19.70
41593;BMP180;28026;48.562;14.440;2022-10-16T05:51:44;94036.00;;;19.70
41593;BMP180;28026;48.562;14.440;2022-10-16T05:54:15;94039.00;;;19.70
41593;BMP180;28026;48.562;14.440;2022-10-16T05:56:46;94035.00;;;19.80
41593;BMP180;28026;48.562;14.440;2022-10-16T05:59:17;94042.00;;;19.80
41593;BMP180;28026;48.562;14.440;2022-10-16T06:01:47;94044.00;;;19.80
41593;BMP180;28026;48.562;14.440;2022-10-16T06:04:18;94037.00;;;19.90
41593;BMP180;28026;48.562;14.440;2022-10-16T06:06:49;94043.00;;;19.90
41593;BMP180;28026;48.562;14.440;2022-10-16T06:09:20;94047.00;;;19.90
41593;BMP180;28026;48.562;14.440;2022-10-16T06:11:51;94056.00;;;20.00
41593;BMP180;28026;48.562;14.440;2022-10-16T06:14:22;94047.00;;;19.90
41593;BMP180;28026;48.562;14.440;2022-10-16T06:16:53;94051.00;;;19.90
41593;BMP180;28026;48.562;14.440;2022-10-16T06:19:24;94057.00;;;20.00
41593;BMP180;28026;48.562;14.440;2022-10-16T06:21:55;94052.00;;;20.00
41593;BMP180;28026;48.562;14.440;2022-10-16T06:24:28;94063.00;;;20.10
41593;BMP180;28026;48.562;14.440;2022-10-16T06:26:59;94059.00;;;20.10
41593;BMP180;28026;48.562;14.440;2022-10-16T06:29:30;94058.00;;;20.20
41593;BMP180;28026;48.562;14.440;2022-10-16T06:32:01;94060.00;;;20.30
41593;BMP180;28026;48.562;14.440;2022-10-16T06:34:32;94065.00;;;20.40
41593;BMP180;28026;48.562;14.440;2022-10-16T06:37:02;94078.00;;;20.60
41593;BMP180;28026;48.562;14.440;2022-10-16T06:39:33;94077.00;;;20.60
41593;BMP180;28026;48.562;14.440;2022-10-16T06:42:04;94075.00;;;20.70
41593;BMP180;28026;48.562;14.440;2022-10-16T06:44:35;94077.00;;;20.80
41593;BMP180;28026;48.562;14.440;2022-10-16T06:47:06;94081.00;;;21.00
41593;BMP180;28026;48.562;14.440;2022-10-16T06:49:37;94086.00;;;21.10
41593;BMP180;28026;48.562;14.440;2022-10-16T06:52:08;94099.00;;;21.30
41593;BMP180;28026;48.562;14.440;2022-10-16T06:54:39;94092.00;;;21.40
41593;BMP180;28026;48.562;14.440;2022-10-16T06:57:10;94099.00;;;21.50
41593;BMP180;28026;48.562;14.440;2022-10-16T06:59:41;94098.00;;;21.60
41593;BMP180;28026;48.562;14.440;2022-10-16T07:02:12;94097.00;;;21.70
41593;BMP180;28026;48.562;14.440;2022-10-16T07:04:42;94089.00;;;21.70
41593;BMP180;28026;48.562;14.440;2022-10-16T07:07:13;94104.00;;;21.90
41593;BMP180;28026;48.562;14.440;2022-10-16T07:09:44;94105.00;;;22.00
41593;BMP180;28026;48.562;14.440;2022-10-16T07:12:15;94104.00;;;22.20
41593;BMP180;28026;48.562;14.440;2022-10-16T07:14:46;94100.00;;;22.30
41593;BMP180;28026;48.562;14.440;2022-10-16T07:17:17;94100.00;;;22.40
41593;BMP180;28026;48.562;14.440;2022-10-16T07:19:48;94112.00;;;22.40
41593;BMP180;28026;48.562;14.440;2022-10-16T07:22:19;94113.00;;;22.40
41593;BMP180;28026;48.562;14.440;2022-10-16T07:24:50;94113.00;;;22.30
41593;BMP180;28026;48.562;14.440;2022-10-16T07:27:22;94120.00;;;22.30
41593;BMP180;28026;48.562;14.440;2022-10-16T07:29:54;94118.00;;;22.40
41593;BMP180;28026;48.562;14.440;2022-10-16T07:32:25;94129.00;;;22.30
41593;BMP180;28026;48.562;14.440;2022-10-16T07:34:56;94127.00;;;22.30
41593;BMP180;28026;48.562;14.440;2022-10-16T07:37:27;94134.00;;;22.40
41593;BMP180;28026;48.562;14.440;2022-10-16T07:39:58;94140.00;;;22.50
41593;BMP180;28026;48.562;14.440;2022-10-16T07:42:29;94138.00;;;22.50
41593;BMP180;28026;48.562;14.440;2022-10-16T07:44:59;94146.00;;;22.60
41593;BMP180;28026;48.562;14.440;2022-10-16T07:47:30;94155.00;;;22.50
41593;BMP180;28026;48.562;14.440;2022-10-16T07:50:01;94165.00;;;22.60
41593;BMP180;28026;48.562;14.440;2022-10-16T07:52:32;94170.00;;;22.60
41593;BMP180;28026;48.562;14.440;2022-10-16T07:55:03;94171.00;;;22.60
41593;BMP180;28026;48.562;14.440;2022-10-16T07:57:35;94160.00;;;22.70
41593;BMP180;28026;48.562;14.440;2022-10-16T08:00:06;94159.00;;;22.70
41593;BMP180;28026;48.562;14.440;2022-10-16T08:02:43;94162.00;;;22.80
41593;BMP180;28026;48.562;14.440;2022-10-16T08:05:14;94159.00;;;22.80
41593;BMP180;28026;48.562;14.440;2022-10-16T08:07:49;94156.00;;;22.90
41593;BMP180;28026;48.562;14.440;2022-10-16T08:10:24;94173.00;;;22.90
41593;BMP180;28026;48.562;14.440;2022-10-16T08:12:57;94168.00;;;22.90
41593;BMP180;28026;48.562;14.440;2022-10-16T08:15:28;94172.00;;;22.80
41593;BMP180;28026;48.562;14.440;2022-10-16T08:18:02;94162.00;;;22.90
41593;BMP180;28026;48.562;14.440;2022-10-16T08:20:34;94164.00;;;23.00
41593;BMP180;28026;48.562;14.440;2022-10-16T08:23:06;94152.00;;;23.10
41593;BMP180;28026;48.562;14.440;2022-10-16T08:25:37;94150.00;;;23.20
41593;BMP180;28026;48.562;14.440;2022-10-16T08:28:10;94149.00;;;23.20
41593;BMP180;28026;48.562;14.440;2022-10-16T08:30:41;94150.00;;;23.30
41593;BMP180;28026;48.562;14.440;2022-10-16T08:33:13;94154.00;;;23.40
41593;BMP180;28026;48.562;14.440;2022-10-16T08:35:51;94158.00;;;23.40
41593;BMP180;28026;48.562;14.440;2022-10-16T08:38:24;94153.00;;;23.40
41593;BMP180;28026;48.562;14.440;2022-10-16T08:47:18;94159.00;;;23.80
41593;BMP180;28026;48.562;14.440;2022-10-16T08:50:01;94170.00;;;24.00
41593;BMP180;28026;48.562;14.440;2022-10-16T08:52:44;94176.00;;;24.40
41593;BMP180;28026;48.562;14.440;2022-10-16T08:55:32;94181.00;;;24.60
41593;BMP180;28026;48.562;14.440;2022-10-16T08:58:25;94178.00;;;24.80
41593;BMP180;28026;48.562;14.440;2022-10-16T09:01:13;94183.00;;;25.00
41593;BMP180;28026;48.562;14.440;2022-10-16T09:07:47;94186.00;;;25.40
41593;BMP180;28026;48.562;14.440;2022-10-16T09:13:36;94198.00;;;25.70
41593;BMP180;28026;48.562;14.440;2022-10-16T09:16:41;94198.00;;;26.00
41593;BMP180;28026;48.562;14.440;2022-10-16T09:19:27;94207.00;;;26.00
41593;BMP180;28026;48.562;14.440;2022-10-16T09:22:14;94207.00;;;26.10
41593;BMP180;28026;48.562;14.440;2022-10-16T09:24:48;94201.00;;;26.30
41593;BMP180;28026;48.562;14.440;2022-10-16T09:27:19;94210.00;;;26.50
41593;BMP180;28026;48.562;14.440;2022-10-16T09:29:50;94211.00;;;26.60
41593;BMP180;28026;48.562;14.440;2022-10-16T09:32:22;94212.00;;;26.70
41593;BMP180;28026;48.562;14.440;2022-10-16T09:34:55;94209.00;;;26.60
41593;BMP180;28026;48.562;14.440;2022-10-16T09:37:28;94222.00;;;26.60
41593;BMP180;28026;48.562;14.440;2022-10-16T09:39:59;94214.00;;;26.60
41593;BMP180;28026;48.562;14.440;2022-10-16T09:42:36;94214.00;;;26.50
41593;BMP180;28026;48.562;14.440;2022-10-16T09:45:23;94216.00;;;26.40
41593;BMP180;28026;48.562;14.440;2022-10-16T09:47:54;94217.00;;;26.40
41593;BMP180;28026;48.562;14.440;2022-10-16T09:50:28;94214.00;;;26.40
41593;BMP180;28026;48.562;14.440;2022-10-16T09:53:13;94220.00;;;26.50
41593;BMP180;28026;48.562;14.440;2022-10-16T09:55:53;94221.00;;;26.50
41593;BMP180;28026;48.562;14.440;2022-10-16T09:58:24;94223.00;;;26.60
41593;BMP180;28026;48.562;14.440;2022-10-16T10:00:55;94220.00;;;26.60
41593;BMP180;28026;48.562;14.440;2022-10-16T10:03:39;94223.00;;;26.70
41593;BMP180;28026;48.562;14.440;2022-10-16T10:06:50;94221.00;;;26.90
41593;BMP180;28026;48.562;14.440;2022-10-16T10:09:35;94222.00;;;27.00
41593;BMP180;28026;48.562;14.440;2022-10-16T10:12:27;94211.00;;;27.20
41593;BMP180;28026;48.562;14.440;2022-10-16T10:15:11;94209.00;;;27.20
41593;BMP180;28026;48.562;14.440;2022-10-16T10:17:56;94220.00;;;27.20
41593;BMP180;28026;48.562;14.440;2022-10-16T10:20:35;94224.00;;;27.10
41593;BMP180;28026;48.562;14.440;2022-10-16T10:23:24;94223.00;;;27.10
41593;BMP180;28026;48.562;14.440;2022-10-16T10:26:20;94222.00;;;27.30
41593;BMP180;28026;48.562;14.440;2022-10-16T10:29:28;94217.00;;;27.40
41593;BMP180;28026;48.562;14.440;2022-10-16T10:32:45;94221.00;;;27.50
41593;BMP180;28026;48.562;14.440;2022-10-16T10:35:46;94221.00;;;27.60
41593;BMP180;28026;48.562;14.440;2022-10-16T10:38:49;94214.00;;;27.90
41593;BMP180;28026;48.562;14.440;2022-10-16T10:42:27;94224.00;;;28.20
41593;BMP180;28026;48.562;14.440;2022-10-16T10:48:53;94224.00;;;28.40
41593;BMP180;28026;48.562;14.440;2022-10-16T10:58:24;94228.00;;;28.80
41593;BMP180;28026;48.562;14.440;2022-10-16T11:01:11;94222.00;;;28.80
41593;BMP180;28026;48.562;14.440;2022-10-16T11:04:54;94216.00;;;28.90
41593;BMP180;28026;48.562;14.440;2022-10-16T11:08:03;94214.00;;;29.00
41593;BMP180;28026;48.562;14.440;2022-10-16T11:14:06;94211.00;;;29.30
41593;BMP180;28026;48.562;14.440;2022-10-16T11:16:58;94214.00;;;29.40
41593;BMP180;28026;48.562;14.440;2022-10-16T11:19:49;94221.00;;;29.60
41593;BMP180;28026;48.562;14.440;2022-10-16T11:22:56;94219.00;;;29.50
41593;BMP180;28026;48.562;14.440;2022-10-16T11:25:33;94218.00;;;29.60
41593;BMP180;28026;48.562;14.440;2022-10-16T11:28:45;94214.00;;;29.60
41593;BMP180;28026;48.562;14.440;2022-10-16T11:31:46;94223.00;;;29.80
41593;BMP180;28026;48.562;14.440;2022-10-16T11:34:27;94214.00;;;30.00
41593;BMP180;28026;48.562;14.440;2022-10-16T11:37:42;94219.00;;;30.10
41593;BMP180;28026;48.562;14.440;2022-10-16T11:40:32;94210.00;;;30.10
41593;BMP180;28026;48.562;14.440;2022-10-16T11:43:19;94212.00;;;30.30
41593;BMP180;28026;48.562;14.440;2022-10-16T11:46:04;94204.00;;;30.40
41593;BMP180;28026;48.562;14.440;2022-10-16T11:49:00;94205.00;;;30.60
41593;BMP180;28026;48.562;14.440;2022-10-16T11:51:59;94213.00;;;30.60
41593;BMP180;28026;48.562;14.440;2022-10-16T11:57:35;94209.00;;;30.70
41593;BMP180;28026;48.562;14.440;2022-10-16T12:00:27;94208.00;;;30.70
41593;BMP180;28026;48.562;14.440;2022-10-16T12:03:46;94207.00;;;30.80
41593;BMP180;28026;48.562;14.440;2022-10-16T12:07:06;94208.00;;;31.00
41593;BMP180;28026;48.562;14.440;2022-10-16T12:09:42;94205.00;;;31.10
41593;BMP180;28026;48.562;14.440;2022-10-16T12:17:57;94208.00;;;31.20
41593;BMP180;28026;48.562;14.440;2022-10-16T12:20:32;94208.00;;;31.00
41593;BMP180;28026;48.562;14.440;2022-10-16T12:23:06;94214.00;;;30.90
41593;BMP180;28026;48.562;14.440;2022-10-16T12:25:40;94214.00;;;31.00
41593;BMP180;28026;48.562;14.440;2022-10-16T12:28:28;94217.00;;;31.00
41593;BMP180;28026;48.562;14.440;2022-10-16T12:31:07;94219.00;;;31.00
41593;BMP180;28026;48.562;14.440;2022-10-16T12:34:01;94215.00;;;31.10
41593;BMP180;28026;48.562;14.440;2022-10-16T12:36:34;94213.00;;;31.10
41593;BMP180;28026;48.562;14.440;2022-10-16T12:39:22;94208.00;;;31.30
41593;BMP180;28026;48.562;14.440;2022-10-16T12:42:05;94214.00;;;31.40
41593;BMP180;28026;48.562;14.440;2022-10-16T12:44:57;94216.00;;;31.60
41593;BMP180;28026;48.562;14.440;2022-10-16T12:50:02;94218.00;;;31.70
41593;BMP180;28026;48.562;14.440;2022-10-16T12:52:38;94219.00;;;31.90
41593;BMP180;28026;48.562;14.440;2022-10-16T12:55:18;94223.00;;;31.90
41593;BMP180;28026;48.562;14.440;2022-10-16T12:58:41;94229.00;;;32.00
41593;BMP180;28026;48.562;14.440;2022-10-16T13:05:16;94231.00;;;32.10
41593;BMP180;28026;48.562;14.440;2022-10-16T13:21:51;94224.00;;;32.10
41593;BMP180;28026;48.562;14.440;2022-10-16T13:28:13;94221.00;;;32.20
41593;BMP180;28026;48.562;14.440;2022-10-16T13:30:57;94225.00;;;32.10
41593;BMP180;28026;48.562;14.440;2022-10-16T13:33:39;94227.00;;;32.00
41593;BMP180;28026;48.562;14.440;2022-10-16T13:36:23;94228.00;;;32.00
41593;BMP180;28026;48.562;14.440;2022-10-16T13:42:10;94227.00;;;32.20
41593;BMP180;28026;48.562;14.440;2022-10-16T13:44:55;94232.00;;;32.30
41593;BMP180;28026;48.562;14.440;2022-10-16T13:47:29;94238.00;;;32.30
41593;BMP180;28026;48.562;14.440;2022-10-16T13:50:19;94236.00;;;32.20
41593;BMP180;28026;48.562;14.440;2022-10-16T13:52:50;94233.00;;;32.10
41593;BMP180;28026;48.562;14.440;2022-10-16T13:55:21;94240.00;;;32.10
41593;BMP180;28026;48.562;14.440;2022-10-16T13:57:52;94243.00;;;32.20
41593;BMP180;28026;48.562;14.440;2022-10-16T14:00:26;94242.00;;;32.20
41593;BMP180;28026;48.562;14.440;2022-10-16T14:03:12;94250.00;;;32.30
41593;BMP180;28026;48.562;14.440;2022-10-16T14:05:53;94246.00;;;32.10
41593;BMP180;28026;48.562;14.440;2022-10-16T14:08:28;94250.00;;;32.10
41593;BMP180;28026;48.562;14.440;2022-10-16T14:11:01;94245.00;;;32.10
41593;BMP180;28026;48.562;14.440;2022-10-16T14:13:54;94255.00;;;32.10
41593;BMP180;28026;48.562;14.440;2022-10-16T14:16:30;94258.00;;;32.00
41593;BMP180;28026;48.562;14.440;2022-10-16T14:19:05;94258.00;;;32.00
41593;BMP180;28026;48.562;14.440;2022-10-16T14:21:40;94258.00;;;32.00
41593;BMP180;28026;48.562;14.440;2022-10-16T14:27:20;94269.00;;;32.00
41593;BMP180;28026;48.562;14.440;2022-10-16T14:30:15;94265.00;;;31.90
41593;BMP180;28026;48.562;14.440;2022-10-16T14:33:19;94269.00;;;31.90
41593;BMP180;28026;48.562;14.440;2022-10-16T14:36:04;94272.00;;;32.10
41593;BMP180;28026;48.562;14.440;2022-10-16T14:39:01;94276.00;;;32.30
41593;BMP180;28026;48.562;14.440;2022-10-16T14:41:43;94268.00;;;32.40
41593;BMP180;28026;48.562;14.440;2022-10-16T14:44:31;94276.00;;;32.40
41593;BMP180;28026;48.562;14.440;2022-10-16T14:47:15;94276.00;;;32.50
41593;BMP180;28026;48.562;14.440;2022-10-16T14:49:54;94281.00;;;32.20
41593;BMP180;28026;48.562;14.440;2022-10-16T14:52:26;94283.00;;;31.60
41593;BMP180;28026;48.562;14.440;2022-10-16T14:54:57;94281.00;;;31.00
41593;BMP180;28026;48.562;14.440;2022-10-16T14:57:34;94277.00;;;30.40
41593;BMP180;28026;48.562;14.440;2022-10-16T15:00:28;94282.00;;;29.90
41593;BMP180;28026;48.562;14.440;2022-10-16T15:02:59;94276.00;;;29.50
41593;BMP180;28026;48.562;14.440;2022-10-16T15:05:30;94275.00;;;29.20
41593;BMP180;28026;48.562;14.440;2022-10-16T15:08:02;94277.00;;;28.90
41593;BMP180;28026;48.562;14.440;2022-10-16T15:10:41;94269.00;;;28.60
41593;BMP180;28026;48.562;14.440;2022-10-16T15:13:14;94274.00;;;28.30
41593;BMP180;28026;48.562;14.440;2022-10-16T15:15:46;94267.00;;;28.10
41593;BMP180;28026;48.562;14.440;2022-10-16T15:18:19;94267.00;;;27.90
41593;BMP180;28026;48.562;14.440;2022-10-16T15:20:51;94261.00;;;27.80
41593;BMP180;28026;48.562;14.440;2022-10-16T15:23:22;94267.00;;;27.80
41593;BMP180;28026;48.562;14.440;2022-10-16T15:25:55;94269.00;;;27.90
41593;BMP180;28026;48.562;14.440;2022-10-16T15:28:27;94270.00;;;28.00
41593;BMP180;28026;48.562;14.440;2022-10-16T15:30:58;94272.00;;;28.10
41593;BMP180;28026;48.562;14.440;2022-10-16T15:33:29;94275.00;;;28.10
41593;BMP180;28026;48.562;14.440;2022-10-16T15:36:06;94277.00;;;28.20
41593;BMP180;28026;48.562;14.440;2022-10-16T15:38:37;94287.00;;;28.30
41593;BMP180;28026;48.562;14.440;2022-10-16T15:41:08;94284.00;;;28.30
41593;BMP180;28026;48.562;14.440;2022-10-16T15:43:39;94291.00;;;28.30
41593;BMP180;28026;48.562;14.440;2022-10-16T15:46:17;94293.00;;;28.20
41593;BMP180;28026;48.562;14.440;2022-10-16T15:48:51;94291.00;;;28.20
41593;BMP180;28026;48.562;14.440;2022-10-16T15:51:27;94294.00;;;28.20
41593;BMP180;28026;48.562;14.440;2022-10-16T15:54:00;94299.00;;;28.30
41593;BMP180;28026;48.562;14.440;2022-10-16T15:56:32;94289.00;;;28.20
41593;BMP180;28026;48.562;14.440;2022-10-16T15:59:04;94300.00;;;28.20
41593;BMP180;28026;48.562;14.440;2022-10-16T16:01:36;94293.00;;;28.10
41593;BMP180;28026;48.562;14.440;2022-10-16T16:04:07;94297.00;;;28.00
41593;BMP180;28026;48.562;14.440;2022-10-16T16:06:38;94293.00;;;28.00
41593;BMP180;28026;48.562;14.440;2022-10-16T16:09:14;94292.00;;;27.90
41593;BMP180;28026;48.562;14.440;2022-10-16T16:11:45;94298.00;;;27.90
41593;BMP180;28026;48.562;14.440;2022-10-16T16:14:16;94300.00;;;27.90
41593;BMP180;28026;48.562;14.440;2022-10-16T16:16:47;94303.00;;;27.90
41593;BMP180;28026;48.562;14.440;2022-10-16T16:19:18;94309.00;;;27.90
41593;BMP180;28026;48.562;14.440;2022-10-16T16:21:51;94319.00;;;27.90